sensor_id;sensor_type;location;lat;lon;timestamp;P1;durP1;ratioP1;P2;durP2;ratioP2
74553;SDS011;63114;59.956;30.214;2022-10-18T00:01:27;3.90;;;1.45;;
74553;SDS011;63114;59.956;30.214;2022-10-18T00:03:52;7.30;;;1.25;;
74553;SDS011;63114;59.956;30.214;2022-10-18T00:06:18;6.82;;;1.70;;
74553;SDS011;63114;59.956;30.214;2022-10-18T00:08:44;5.28;;;1.10;;
74553;SDS011;63114;59.956;30.214;2022-10-18T00:11:09;6.65;;;1.48;;
74553;SDS011;63114;59.956;30.214;2022-10-18T00:13:35;4.22;;;0.90;;
74553;SDS011;63114;59.956;30.214;2022-10-18T00:16:02;5.43;;;1.17;;
74553;SDS011;63114;59.956;30.214;2022-10-18T00:18:29;4.47;;;1.08;;
74553;SDS011;63114;59.956;30.214;2022-10-18T00:20:56;8.77;;;1.33;;
74553;SDS011;63114;59.956;30.214;2022-10-18T00:23:25;8.95;;;1.40;;
74553;SDS011;63114;59.956;30.214;2022-10-18T00:26:05;7.15;;;1.20;;
74553;SDS011;63114;59.956;30.214;2022-10-18T00:28:31;7.22;;;1.52;;
74553;SDS011;63114;59.956;30.214;2022-10-18T00:31:07;7.32;;;1.30;;
74553;SDS011;63114;59.956;30.214;2022-10-18T00:33:35;7.90;;;1.27;;
74553;SDS011;63114;59.956;30.214;2022-10-18T00:36:01;6.75;;;1.33;;
74553;SDS011;63114;59.956;30.214;2022-10-18T00:38:27;5.68;;;1.20;;
74553;SDS011;63114;59.956;30.214;2022-10-18T00:40:53;6.28;;;1.48;;
74553;SDS011;63114;59.956;30.214;2022-10-18T00:43:18;7.75;;;1.25;;
74553;SDS011;63114;59.956;30.214;2022-10-18T00:45:44;7.05;;;2.15;;
74553;SDS011;63114;59.956;30.214;2022-10-18T00:48:10;6.38;;;1.38;;
74553;SDS011;63114;59.956;30.214;2022-10-18T00:50:37;6.50;;;1.42;;
74553;SDS011;63114;59.956;30.214;2022-10-18T00:53:05;7.70;;;1.50;;
74553;SDS011;63114;59.956;30.214;2022-10-18T00:55:33;6.65;;;1.20;;
74553;SDS011;63114;59.956;30.214;2022-10-18T00:57:59;10.48;;;1.50;;
74553;SDS011;63114;59.956;30.214;2022-10-18T01:00:25;7.15;;;1.33;;
74553;SDS011;63114;59.956;30.214;2022-10-18T01:02:50;10.30;;;2.58;;
74553;SDS011;63114;59.956;30.214;2022-10-18T01:05:17;5.93;;;1.10;;
74553;SDS011;63114;59.956;30.214;2022-10-18T01:10:41;7.13;;;1.30;;
74553;SDS011;63114;59.956;30.214;2022-10-18T01:16:31;9.05;;;1.75;;
74553;SDS011;63114;59.956;30.214;2022-10-18T01:18:59;10.10;;;1.80;;
74553;SDS011;63114;59.956;30.214;2022-10-18T01:21:34;5.32;;;1.38;;
74553;SDS011;63114;59.956;30.214;2022-10-18T01:24:13;7.45;;;1.70;;
74553;SDS011;63114;59.956;30.214;2022-10-18T01:27:11;8.68;;;1.73;;
74553;SDS011;63114;59.956;30.214;2022-10-18T01:30:03;7.55;;;1.40;;
74553;SDS011;63114;59.956;30.214;2022-10-18T01:32:53;5.13;;;1.35;;
74553;SDS011;63114;59.956;30.214;2022-10-18T01:35:27;3.90;;;1.30;;
74553;SDS011;63114;59.956;30.214;2022-10-18T01:37:55;6.57;;;1.27;;
74553;SDS011;63114;59.956;30.214;2022-10-18T01:40:24;5.43;;;1.75;;
74553;SDS011;63114;59.956;30.214;2022-10-18T01:42:50;6.72;;;1.70;;
74553;SDS011;63114;59.956;30.214;2022-10-18T01:45:17;7.70;;;1.35;;
74553;SDS011;63114;59.956;30.214;2022-10-18T01:47:44;6.38;;;1.40;;
74553;SDS011;63114;59.956;30.214;2022-10-18T01:50:11;8.90;;;1.58;;
74553;SDS011;63114;59.956;30.214;2022-10-18T01:52:47;4.88;;;1.33;;
74553;SDS011;63114;59.956;30.214;2022-10-18T01:55:13;9.93;;;1.35;;
74553;SDS011;63114;59.956;30.214;2022-10-18T01:57:40;6.88;;;1.35;;
74553;SDS011;63114;59.956;30.214;2022-10-18T02:00:22;6.88;;;1.60;;
74553;SDS011;63114;59.956;30.214;2022-10-18T02:03:01;8.07;;;1.50;;
74553;SDS011;63114;59.956;30.214;2022-10-18T02:05:31;8.60;;;1.75;;
74553;SDS011;63114;59.956;30.214;2022-10-18T02:10:47;11.13;;;1.75;;
74553;SDS011;63114;59.956;30.214;2022-10-18T02:13:16;8.32;;;2.00;;
74553;SDS011;63114;59.956;30.214;2022-10-18T02:15:45;8.35;;;1.58;;
74553;SDS011;63114;59.956;30.214;2022-10-18T02:18:14;7.35;;;1.58;;
74553;SDS011;63114;59.956;30.214;2022-10-18T02:20:52;4.72;;;1.73;;
74553;SDS011;63114;59.956;30.214;2022-10-18T02:23:20;8.13;;;1.95;;
74553;SDS011;63114;59.956;30.214;2022-10-18T02:25:47;8.18;;;2.15;;
74553;SDS011;63114;59.956;30.214;2022-10-18T02:28:13;7.75;;;1.90;;
74553;SDS011;63114;59.956;30.214;2022-10-18T02:30:57;10.73;;;1.83;;
74553;SDS011;63114;59.956;30.214;2022-10-18T02:36:12;6.43;;;2.13;;
74553;SDS011;63114;59.956;30.214;2022-10-18T02:38:42;8.55;;;1.83;;
74553;SDS011;63114;59.956;30.214;2022-10-18T02:41:09;7.07;;;1.63;;
74553;SDS011;63114;59.956;30.214;2022-10-18T02:43:35;5.68;;;2.08;;
74553;SDS011;63114;59.956;30.214;2022-10-18T02:46:01;7.43;;;1.92;;
74553;SDS011;63114;59.956;30.214;2022-10-18T02:48:27;12.63;;;1.70;;
74553;SDS011;63114;59.956;30.214;2022-10-18T02:50:53;9.98;;;2.08;;
74553;SDS011;63114;59.956;30.214;2022-10-18T02:53:18;7.60;;;1.50;;
74553;SDS011;63114;59.956;30.214;2022-10-18T02:55:44;7.95;;;2.60;;
74553;SDS011;63114;59.956;30.214;2022-10-18T02:58:09;10.32;;;1.95;;
74553;SDS011;63114;59.956;30.214;2022-10-18T03:00:35;7.13;;;1.83;;
74553;SDS011;63114;59.956;30.214;2022-10-18T03:03:01;8.88;;;2.15;;
74553;SDS011;63114;59.956;30.214;2022-10-18T03:05:27;9.48;;;3.03;;
74553;SDS011;63114;59.956;30.214;2022-10-18T03:07:55;12.38;;;2.90;;
74553;SDS011;63114;59.956;30.214;2022-10-18T03:10:21;6.25;;;2.33;;
74553;SDS011;63114;59.956;30.214;2022-10-18T03:12:47;11.70;;;3.15;;
74553;SDS011;63114;59.956;30.214;2022-10-18T03:15:13;9.63;;;2.10;;
74553;SDS011;63114;59.956;30.214;2022-10-18T03:17:38;9.88;;;2.30;;
74553;SDS011;63114;59.956;30.214;2022-10-18T03:20:04;11.88;;;2.72;;
74553;SDS011;63114;59.956;30.214;2022-10-18T03:22:30;8.68;;;2.50;;
74553;SDS011;63114;59.956;30.214;2022-10-18T03:24:56;8.23;;;2.88;;
74553;SDS011;63114;59.956;30.214;2022-10-18T03:27:22;11.23;;;3.28;;
74553;SDS011;63114;59.956;30.214;2022-10-18T03:29:47;9.40;;;2.80;;
74553;SDS011;63114;59.956;30.214;2022-10-18T03:32:13;9.15;;;3.47;;
74553;SDS011;63114;59.956;30.214;2022-10-18T03:34:39;9.43;;;2.70;;
74553;SDS011;63114;59.956;30.214;2022-10-18T03:37:04;8.60;;;3.20;;
74553;SDS011;63114;59.956;30.214;2022-10-18T03:39:30;9.95;;;3.55;;
74553;SDS011;63114;59.956;30.214;2022-10-18T03:41:55;14.60;;;3.15;;
74553;SDS011;63114;59.956;30.214;2022-10-18T03:44:21;8.65;;;4.15;;
74553;SDS011;63114;59.956;30.214;2022-10-18T03:46:47;14.90;;;3.97;;
74553;SDS011;63114;59.956;30.214;2022-10-18T03:49:12;10.30;;;4.13;;
74553;SDS011;63114;59.956;30.214;2022-10-18T03:51:38;15.35;;;4.25;;
74553;SDS011;63114;59.956;30.214;2022-10-18T03:54:04;10.55;;;4.45;;
74553;SDS011;63114;59.956;30.214;2022-10-18T03:56:29;11.38;;;4.68;;
74553;SDS011;63114;59.956;30.214;2022-10-18T03:58:55;13.88;;;4.93;;
74553;SDS011;63114;59.956;30.214;2022-10-18T04:01:21;17.35;;;5.28;;
74553;SDS011;63114;59.956;30.214;2022-10-18T04:03:46;13.25;;;5.15;;
74553;SDS011;63114;59.956;30.214;2022-10-18T04:06:12;12.77;;;4.60;;
74553;SDS011;63114;59.956;30.214;2022-10-18T04:08:38;16.65;;;5.88;;
74553;SDS011;63114;59.956;30.214;2022-10-18T04:11:05;15.13;;;5.03;;
74553;SDS011;63114;59.956;30.214;2022-10-18T04:13:33;13.82;;;5.22;;
74553;SDS011;63114;59.956;30.214;2022-10-18T04:15:59;17.30;;;5.30;;
74553;SDS011;63114;59.956;30.214;2022-10-18T04:18:25;12.93;;;5.18;;
74553;SDS011;63114;59.956;30.214;2022-10-18T04:20:50;10.88;;;4.28;;
74553;SDS011;63114;59.956;30.214;2022-10-18T04:23:16;20.85;;;5.93;;
74553;SDS011;63114;59.956;30.214;2022-10-18T04:25:42;12.95;;;5.15;;
74553;SDS011;63114;59.956;30.214;2022-10-18T04:28:07;10.07;;;4.57;;
74553;SDS011;63114;59.956;30.214;2022-10-18T04:30:33;11.73;;;4.55;;
74553;SDS011;63114;59.956;30.214;2022-10-18T04:32:59;13.75;;;3.72;;
74553;SDS011;63114;59.956;30.214;2022-10-18T04:35:24;12.77;;;4.40;;
74553;SDS011;63114;59.956;30.214;2022-10-18T04:37:52;11.95;;;3.63;;
74553;SDS011;63114;59.956;30.214;2022-10-18T04:40:19;12.77;;;4.40;;
74553;SDS011;63114;59.956;30.214;2022-10-18T04:42:44;14.32;;;4.22;;
74553;SDS011;63114;59.956;30.214;2022-10-18T04:45:10;12.18;;;3.63;;
74553;SDS011;63114;59.956;30.214;2022-10-18T04:47:36;7.68;;;3.25;;
74553;SDS011;63114;59.956;30.214;2022-10-18T04:50:02;10.05;;;2.72;;
74553;SDS011;63114;59.956;30.214;2022-10-18T04:52:28;7.60;;;2.50;;
74553;SDS011;63114;59.956;30.214;2022-10-18T04:54:54;10.57;;;2.35;;
74553;SDS011;63114;59.956;30.214;2022-10-18T04:57:20;10.05;;;2.53;;
74553;SDS011;63114;59.956;30.214;2022-10-18T04:59:46;7.57;;;2.28;;
74553;SDS011;63114;59.956;30.214;2022-10-18T05:02:11;8.55;;;1.95;;
74553;SDS011;63114;59.956;30.214;2022-10-18T05:04:37;9.45;;;2.22;;
74553;SDS011;63114;59.956;30.214;2022-10-18T05:07:03;11.40;;;2.05;;
74553;SDS011;63114;59.956;30.214;2022-10-18T05:09:31;6.95;;;1.77;;
74553;SDS011;63114;59.956;30.214;2022-10-18T05:11:57;5.50;;;1.25;;
74553;SDS011;63114;59.956;30.214;2022-10-18T05:14:22;6.53;;;1.50;;
74553;SDS011;63114;59.956;30.214;2022-10-18T05:16:48;8.55;;;1.50;;
74553;SDS011;63114;59.956;30.214;2022-10-18T05:19:14;6.78;;;1.40;;
74553;SDS011;63114;59.956;30.214;2022-10-18T05:21:40;7.05;;;1.40;;
74553;SDS011;63114;59.956;30.214;2022-10-18T05:24:05;6.78;;;1.30;;
74553;SDS011;63114;59.956;30.214;2022-10-18T05:26:31;6.30;;;1.50;;
74553;SDS011;63114;59.956;30.214;2022-10-18T05:28:57;5.90;;;2.15;;
74553;SDS011;63114;59.956;30.214;2022-10-18T05:31:23;11.02;;;1.60;;
74553;SDS011;63114;59.956;30.214;2022-10-18T05:33:48;5.72;;;1.35;;
74553;SDS011;63114;59.956;30.214;2022-10-18T05:36:14;6.47;;;1.73;;
74553;SDS011;63114;59.956;30.214;2022-10-18T05:38:40;6.88;;;1.70;;
74553;SDS011;63114;59.956;30.214;2022-10-18T05:41:07;4.32;;;1.40;;
74553;SDS011;63114;59.956;30.214;2022-10-18T05:43:33;5.35;;;1.63;;
74553;SDS011;63114;59.956;30.214;2022-10-18T05:45:59;5.30;;;1.70;;
74553;SDS011;63114;59.956;30.214;2022-10-18T05:48:24;6.63;;;1.80;;
74553;SDS011;63114;59.956;30.214;2022-10-18T05:50:50;9.25;;;2.15;;
74553;SDS011;63114;59.956;30.214;2022-10-18T05:53:16;6.25;;;1.20;;
74553;SDS011;63114;59.956;30.214;2022-10-18T05:55:42;4.68;;;1.50;;
74553;SDS011;63114;59.956;30.214;2022-10-18T05:58:08;5.43;;;1.83;;
74553;SDS011;63114;59.956;30.214;2022-10-18T06:00:33;6.35;;;1.45;;
74553;SDS011;63114;59.956;30.214;2022-10-18T06:02:59;9.50;;;1.60;;
74553;SDS011;63114;59.956;30.214;2022-10-18T06:05:25;11.18;;;2.28;;
74553;SDS011;63114;59.956;30.214;2022-10-18T06:07:50;6.95;;;1.40;;
74553;SDS011;63114;59.956;30.214;2022-10-18T06:10:16;8.73;;;1.48;;
74553;SDS011;63114;59.956;30.214;2022-10-18T06:12:42;6.60;;;1.65;;
74553;SDS011;63114;59.956;30.214;2022-10-18T06:15:08;8.20;;;1.67;;
74553;SDS011;63114;59.956;30.214;2022-10-18T06:17:34;8.80;;;1.67;;
74553;SDS011;63114;59.956;30.214;2022-10-18T06:20:02;6.28;;;1.50;;
74553;SDS011;63114;59.956;30.214;2022-10-18T06:22:29;6.10;;;1.40;;
74553;SDS011;63114;59.956;30.214;2022-10-18T06:24:55;5.80;;;1.67;;
74553;SDS011;63114;59.956;30.214;2022-10-18T06:27:20;6.70;;;1.85;;
74553;SDS011;63114;59.956;30.214;2022-10-18T06:29:46;7.97;;;1.90;;
74553;SDS011;63114;59.956;30.214;2022-10-18T06:32:12;8.52;;;1.70;;
74553;SDS011;63114;59.956;30.214;2022-10-18T06:34:37;6.47;;;2.10;;
74553;SDS011;63114;59.956;30.214;2022-10-18T06:37:03;6.47;;;1.98;;
74553;SDS011;63114;59.956;30.214;2022-10-18T06:39:29;7.05;;;1.92;;
74553;SDS011;63114;59.956;30.214;2022-10-18T06:41:54;8.80;;;2.08;;
74553;SDS011;63114;59.956;30.214;2022-10-18T06:44:20;7.32;;;1.70;;
74553;SDS011;63114;59.956;30.214;2022-10-18T06:46:47;5.68;;;1.85;;
74553;SDS011;63114;59.956;30.214;2022-10-18T06:49:13;5.78;;;1.70;;
74553;SDS011;63114;59.956;30.214;2022-10-18T06:51:43;13.02;;;2.20;;
74553;SDS011;63114;59.956;30.214;2022-10-18T06:54:10;5.82;;;1.95;;
74553;SDS011;63114;59.956;30.214;2022-10-18T06:56:36;5.15;;;1.48;;
74553;SDS011;63114;59.956;30.214;2022-10-18T06:59:02;7.47;;;1.60;;
74553;SDS011;63114;59.956;30.214;2022-10-18T07:01:28;4.72;;;1.70;;
74553;SDS011;63114;59.956;30.214;2022-10-18T07:03:54;5.20;;;1.40;;
74553;SDS011;63114;59.956;30.214;2022-10-18T07:06:22;4.25;;;1.45;;
74553;SDS011;63114;59.956;30.214;2022-10-18T07:08:49;5.35;;;1.45;;
74553;SDS011;63114;59.956;30.214;2022-10-18T07:11:18;6.55;;;1.80;;
74553;SDS011;63114;59.956;30.214;2022-10-18T07:13:48;5.40;;;1.55;;
74553;SDS011;63114;59.956;30.214;2022-10-18T07:16:15;5.07;;;1.40;;
74553;SDS011;63114;59.956;30.214;2022-10-18T07:18:42;5.97;;;1.48;;
74553;SDS011;63114;59.956;30.214;2022-10-18T07:21:10;1.98;;;1.08;;
74553;SDS011;63114;59.956;30.214;2022-10-18T07:23:38;4.07;;;1.50;;
74553;SDS011;63114;59.956;30.214;2022-10-18T07:26:38;3.42;;;1.35;;
74553;SDS011;63114;59.956;30.214;2022-10-18T07:31:25;10.18;;;2.50;;
74553;SDS011;63114;59.956;30.214;2022-10-18T07:33:52;5.63;;;1.67;;
74553;SDS011;63114;59.956;30.214;2022-10-18T07:36:46;4.35;;;1.45;;
74553;SDS011;63114;59.956;30.214;2022-10-18T07:39:12;6.70;;;1.90;;
74553;SDS011;63114;59.956;30.214;2022-10-18T07:41:39;3.75;;;1.60;;
74553;SDS011;63114;59.956;30.214;2022-10-18T07:44:05;5.65;;;2.10;;
74553;SDS011;63114;59.956;30.214;2022-10-18T07:46:30;3.50;;;1.38;;
74553;SDS011;63114;59.956;30.214;2022-10-18T07:48:56;5.50;;;1.83;;
74553;SDS011;63114;59.956;30.214;2022-10-18T07:51:25;4.63;;;1.55;;
74553;SDS011;63114;59.956;30.214;2022-10-18T07:53:52;5.10;;;1.70;;
74553;SDS011;63114;59.956;30.214;2022-10-18T07:56:18;7.00;;;2.00;;
74553;SDS011;63114;59.956;30.214;2022-10-18T07:58:46;6.93;;;2.17;;
74553;SDS011;63114;59.956;30.214;2022-10-18T08:01:13;4.70;;;1.60;;
74553;SDS011;63114;59.956;30.214;2022-10-18T08:03:40;5.43;;;1.88;;
74553;SDS011;63114;59.956;30.214;2022-10-18T08:06:07;6.32;;;1.70;;
74553;SDS011;63114;59.956;30.214;2022-10-18T08:08:34;5.93;;;1.90;;
74553;SDS011;63114;59.956;30.214;2022-10-18T08:11:04;5.95;;;1.88;;
74553;SDS011;63114;59.956;30.214;2022-10-18T08:13:40;8.73;;;2.28;;
74553;SDS011;63114;59.956;30.214;2022-10-18T08:16:11;5.25;;;2.08;;
74553;SDS011;63114;59.956;30.214;2022-10-18T08:18:39;6.28;;;1.55;;
74553;SDS011;63114;59.956;30.214;2022-10-18T08:21:07;6.70;;;1.95;;
74553;SDS011;63114;59.956;30.214;2022-10-18T08:23:34;5.82;;;1.80;;
74553;SDS011;63114;59.956;30.214;2022-10-18T08:26:01;5.97;;;1.42;;
74553;SDS011;63114;59.956;30.214;2022-10-18T08:28:33;3.47;;;1.27;;
74553;SDS011;63114;59.956;30.214;2022-10-18T08:31:26;5.10;;;1.38;;
74553;SDS011;63114;59.956;30.214;2022-10-18T08:33:53;4.30;;;1.35;;
74553;SDS011;63114;59.956;30.214;2022-10-18T08:36:19;7.38;;;2.22;;
74553;SDS011;63114;59.956;30.214;2022-10-18T08:38:45;3.58;;;1.17;;
74553;SDS011;63114;59.956;30.214;2022-10-18T08:41:20;4.10;;;0.93;;
74553;SDS011;63114;59.956;30.214;2022-10-18T08:47:13;5.85;;;0.80;;
74553;SDS011;63114;59.956;30.214;2022-10-18T08:49:42;3.20;;;0.70;;
74553;SDS011;63114;59.956;30.214;2022-10-18T08:55:17;1.40;;;0.60;;
74553;SDS011;63114;59.956;30.214;2022-10-18T08:58:12;1.88;;;0.60;;
74553;SDS011;63114;59.956;30.214;2022-10-18T09:03:25;4.47;;;1.10;;
74553;SDS011;63114;59.956;30.214;2022-10-18T09:15:21;1.02;;;0.45;;
74553;SDS011;63114;59.956;30.214;2022-10-18T09:18:20;1.48;;;0.50;;
74553;SDS011;63114;59.956;30.214;2022-10-18T09:23:19;3.42;;;0.73;;
74553;SDS011;63114;59.956;30.214;2022-10-18T09:26:09;7.03;;;0.93;;
74553;SDS011;63114;59.956;30.214;2022-10-18T09:28:44;1.73;;;0.50;;
74553;SDS011;63114;59.956;30.214;2022-10-18T09:34:31;1.02;;;0.30;;
74553;SDS011;63114;59.956;30.214;2022-10-18T09:37:18;2.42;;;0.47;;
74553;SDS011;63114;59.956;30.214;2022-10-18T09:39:45;2.45;;;0.30;;
74553;SDS011;63114;59.956;30.214;2022-10-18T09:45:22;1.50;;;0.13;;
74553;SDS011;63114;59.956;30.214;2022-10-18T09:48:33;1.10;;;0.32;;
74553;SDS011;63114;59.956;30.214;2022-10-18T09:51:08;2.50;;;0.70;;
74553;SDS011;63114;59.956;30.214;2022-10-18T09:56:19;0.77;;;0.30;;
74553;SDS011;63114;59.956;30.214;2022-10-18T09:58:48;2.65;;;0.40;;
74553;SDS011;63114;59.956;30.214;2022-10-18T10:01:18;1.33;;;0.55;;
74553;SDS011;63114;59.956;30.214;2022-10-18T10:03:46;2.03;;;0.40;;
74553;SDS011;63114;59.956;30.214;2022-10-18T10:08:42;1.42;;;0.50;;
74553;SDS011;63114;59.956;30.214;2022-10-18T10:11:28;0.98;;;0.35;;
74553;SDS011;63114;59.956;30.214;2022-10-18T10:14:07;1.67;;;0.40;;
74553;SDS011;63114;59.956;30.214;2022-10-18T10:16:43;2.55;;;0.55;;
74553;SDS011;63114;59.956;30.214;2022-10-18T10:22:06;0.75;;;0.30;;
74553;SDS011;63114;59.956;30.214;2022-10-18T10:24:45;2.53;;;0.40;;
74553;SDS011;63114;59.956;30.214;2022-10-18T10:27:17;3.75;;;0.50;;
74553;SDS011;63114;59.956;30.214;2022-10-18T10:32:17;1.88;;;0.50;;
74553;SDS011;63114;59.956;30.214;2022-10-18T10:35:21;2.15;;;0.57;;
74553;SDS011;63114;59.956;30.214;2022-10-18T10:37:55;3.17;;;0.80;;
74553;SDS011;63114;59.956;30.214;2022-10-18T10:40:23;1.90;;;0.63;;
74553;SDS011;63114;59.956;30.214;2022-10-18T10:45:34;2.50;;;0.93;;
74553;SDS011;63114;59.956;30.214;2022-10-18T10:48:12;2.63;;;1.00;;
74553;SDS011;63114;59.956;30.214;2022-10-18T10:50:50;3.00;;;0.50;;
74553;SDS011;63114;59.956;30.214;2022-10-18T10:53:37;2.40;;;0.43;;
74553;SDS011;63114;59.956;30.214;2022-10-18T10:56:06;2.30;;;0.70;;
74553;SDS011;63114;59.956;30.214;2022-10-18T10:58:38;1.38;;;0.45;;
74553;SDS011;63114;59.956;30.214;2022-10-18T11:03:46;3.33;;;1.17;;
74553;SDS011;63114;59.956;30.214;2022-10-18T11:09:00;2.85;;;0.98;;
74553;SDS011;63114;59.956;30.214;2022-10-18T11:11:32;2.40;;;1.00;;
74553;SDS011;63114;59.956;30.214;2022-10-18T11:22:26;3.78;;;1.15;;
74553;SDS011;63114;59.956;30.214;2022-10-18T11:24:58;2.42;;;0.60;;
74553;SDS011;63114;59.956;30.214;2022-10-18T11:27:25;2.08;;;0.75;;
74553;SDS011;63114;59.956;30.214;2022-10-18T11:35:36;3.90;;;0.73;;
74553;SDS011;63114;59.956;30.214;2022-10-18T11:38:06;3.08;;;0.90;;
74553;SDS011;63114;59.956;30.214;2022-10-18T11:43:56;2.58;;;0.70;;
74553;SDS011;63114;59.956;30.214;2022-10-18T12:05:08;1.85;;;0.47;;
74553;SDS011;63114;59.956;30.214;2022-10-18T12:07:37;2.30;;;0.70;;
74553;SDS011;63114;59.956;30.214;2022-10-18T12:10:07;0.93;;;0.50;;
74553;SDS011;63114;59.956;30.214;2022-10-18T12:12:40;3.17;;;0.70;;
74553;SDS011;63114;59.956;30.214;2022-10-18T12:17:44;2.17;;;0.50;;
74553;SDS011;63114;59.956;30.214;2022-10-18T12:20:20;2.30;;;0.65;;
74553;SDS011;63114;59.956;30.214;2022-10-18T12:22:55;1.58;;;0.60;;
74553;SDS011;63114;59.956;30.214;2022-10-18T12:25:33;1.60;;;0.65;;
74553;SDS011;63114;59.956;30.214;2022-10-18T12:28:05;3.10;;;0.80;;
74553;SDS011;63114;59.956;30.214;2022-10-18T12:31:41;3.55;;;0.75;;
74553;SDS011;63114;59.956;30.214;2022-10-18T12:33:59;4.10;;;0.80;;
74553;SDS011;63114;59.956;30.214;2022-10-18T12:39:29;0.98;;;0.60;;
74553;SDS011;63114;59.956;30.214;2022-10-18T12:41:57;2.08;;;0.73;;
74553;SDS011;63114;59.956;30.214;2022-10-18T12:44:28;1.50;;;0.50;;
74553;SDS011;63114;59.956;30.214;2022-10-18T12:46:59;3.47;;;0.85;;
74553;SDS011;63114;59.956;30.214;2022-10-18T12:51:53;1.10;;;0.50;;
74553;SDS011;63114;59.956;30.214;2022-10-18T12:54:22;3.58;;;1.25;;
74553;SDS011;63114;59.956;30.214;2022-10-18T12:56:51;4.65;;;1.00;;
74553;SDS011;63114;59.956;30.214;2022-10-18T13:09:22;1.75;;;0.60;;
74553;SDS011;63114;59.956;30.214;2022-10-18T13:19:58;5.05;;;0.90;;
74553;SDS011;63114;59.956;30.214;2022-10-18T13:22:30;2.50;;;0.60;;
74553;SDS011;63114;59.956;30.214;2022-10-18T13:36:05;1.73;;;0.63;;
74553;SDS011;63114;59.956;30.214;2022-10-18T13:41:24;3.25;;;0.80;;
74553;SDS011;63114;59.956;30.214;2022-10-18T13:46:17;1.58;;;0.40;;
74553;SDS011;63114;59.956;30.214;2022-10-18T14:08:34;3.40;;;1.05;;
74553;SDS011;63114;59.956;30.214;2022-10-18T14:14:35;1.42;;;0.63;;
74553;SDS011;63114;59.956;30.214;2022-10-18T14:20:15;2.65;;;0.82;;
74553;SDS011;63114;59.956;30.214;2022-10-18T14:25:25;3.15;;;0.73;;
74553;SDS011;63114;59.956;30.214;2022-10-18T14:28:29;3.05;;;0.98;;
74553;SDS011;63114;59.956;30.214;2022-10-18T14:30:50;3.80;;;0.93;;
74553;SDS011;63114;59.956;30.214;2022-10-18T14:33:36;3.47;;;0.90;;
74553;SDS011;63114;59.956;30.214;2022-10-18T14:38:29;3.60;;;0.70;;
74553;SDS011;63114;59.956;30.214;2022-10-18T14:41:56;2.90;;;0.85;;
74553;SDS011;63114;59.956;30.214;2022-10-18T14:44:26;2.72;;;0.60;;
74553;SDS011;63114;59.956;30.214;2022-10-18T14:49:29;3.13;;;0.57;;
74553;SDS011;63114;59.956;30.214;2022-10-18T14:51:57;0.98;;;0.50;;
74553;SDS011;63114;59.956;30.214;2022-10-18T14:54:29;2.28;;;0.80;;
74553;SDS011;63114;59.956;30.214;2022-10-18T14:56:58;2.63;;;0.65;;
74553;SDS011;63114;59.956;30.214;2022-10-18T14:59:25;2.85;;;0.75;;
74553;SDS011;63114;59.956;30.214;2022-10-18T15:01:57;3.67;;;0.70;;
74553;SDS011;63114;59.956;30.214;2022-10-18T15:04:25;3.28;;;0.90;;
74553;SDS011;63114;59.956;30.214;2022-10-18T15:07:02;3.25;;;0.70;;
74553;SDS011;63114;59.956;30.214;2022-10-18T15:09:30;2.03;;;0.70;;
74553;SDS011;63114;59.956;30.214;2022-10-18T15:11:59;3.05;;;1.08;;
74553;SDS011;63114;59.956;30.214;2022-10-18T15:14:26;1.23;;;0.50;;
74553;SDS011;63114;59.956;30.214;2022-10-18T15:16:55;2.10;;;0.57;;
74553;SDS011;63114;59.956;30.214;2022-10-18T15:19:33;4.00;;;0.90;;
74553;SDS011;63114;59.956;30.214;2022-10-18T15:22:05;2.65;;;0.90;;
74553;SDS011;63114;59.956;30.214;2022-10-18T15:24:35;2.13;;;0.70;;
74553;SDS011;63114;59.956;30.214;2022-10-18T15:27:24;2.30;;;0.60;;
74553;SDS011;63114;59.956;30.214;2022-10-18T15:29:53;3.20;;;0.80;;
74553;SDS011;63114;59.956;30.214;2022-10-18T15:34:48;4.35;;;1.10;;
74553;SDS011;63114;59.956;30.214;2022-10-18T15:37:22;4.18;;;1.20;;
74553;SDS011;63114;59.956;30.214;2022-10-18T15:42:46;2.22;;;0.63;;
74553;SDS011;63114;59.956;30.214;2022-10-18T15:50:39;2.90;;;1.25;;
74553;SDS011;63114;59.956;30.214;2022-10-18T15:56:02;2.33;;;0.60;;
74553;SDS011;63114;59.956;30.214;2022-10-18T15:58:36;3.25;;;0.60;;
74553;SDS011;63114;59.956;30.214;2022-10-18T16:01:03;3.70;;;0.63;;
74553;SDS011;63114;59.956;30.214;2022-10-18T16:03:33;3.13;;;0.82;;
74553;SDS011;63114;59.956;30.214;2022-10-18T16:06:04;1.92;;;0.50;;
74553;SDS011;63114;59.956;30.214;2022-10-18T16:08:31;1.17;;;0.40;;
74553;SDS011;63114;59.956;30.214;2022-10-18T16:11:04;0.82;;;0.47;;
74553;SDS011;63114;59.956;30.214;2022-10-18T16:13:38;1.60;;;0.47;;
74553;SDS011;63114;59.956;30.214;2022-10-18T16:16:03;2.28;;;0.20;;
74553;SDS011;63114;59.956;30.214;2022-10-18T16:18:29;1.02;;;0.30;;
74553;SDS011;63114;59.956;30.214;2022-10-18T16:20:55;0.60;;;0.30;;
74553;SDS011;63114;59.956;30.214;2022-10-18T16:23:23;1.17;;;0.30;;
74553;SDS011;63114;59.956;30.214;2022-10-18T16:25:51;0.52;;;0.20;;
74553;SDS011;63114;59.956;30.214;2022-10-18T16:28:18;1.08;;;0.22;;
74553;SDS011;63114;59.956;30.214;2022-10-18T16:30:51;1.55;;;0.32;;
74553;SDS011;63114;59.956;30.214;2022-10-18T16:33:19;1.08;;;0.45;;
74553;SDS011;63114;59.956;30.214;2022-10-18T16:35:45;1.23;;;0.30;;
74553;SDS011;63114;59.956;30.214;2022-10-18T16:38:30;1.95;;;0.43;;
74553;SDS011;63114;59.956;30.214;2022-10-18T16:40:58;1.67;;;0.63;;
74553;SDS011;63114;59.956;30.214;2022-10-18T16:43:24;1.92;;;0.68;;
74553;SDS011;63114;59.956;30.214;2022-10-18T16:45:51;2.50;;;1.42;;
74553;SDS011;63114;59.956;30.214;2022-10-18T16:48:18;1.52;;;0.73;;
74553;SDS011;63114;59.956;30.214;2022-10-18T16:50:45;2.05;;;0.70;;
74553;SDS011;63114;59.956;30.214;2022-10-18T16:53:12;1.08;;;0.40;;
74553;SDS011;63114;59.956;30.214;2022-10-18T16:55:38;0.38;;;0.22;;
74553;SDS011;63114;59.956;30.214;2022-10-18T16:58:05;2.25;;;0.38;;
74553;SDS011;63114;59.956;30.214;2022-10-18T17:00:31;0.98;;;0.30;;
74553;SDS011;63114;59.956;30.214;2022-10-18T17:02:57;0.70;;;0.40;;
74553;SDS011;63114;59.956;30.214;2022-10-18T17:05:24;1.55;;;0.50;;
74553;SDS011;63114;59.956;30.214;2022-10-18T17:07:50;0.82;;;0.32;;
74553;SDS011;63114;59.956;30.214;2022-10-18T17:10:18;1.10;;;0.35;;
74553;SDS011;63114;59.956;30.214;2022-10-18T17:12:44;1.65;;;0.50;;
74553;SDS011;63114;59.956;30.214;2022-10-18T17:15:10;1.60;;;0.60;;
74553;SDS011;63114;59.956;30.214;2022-10-18T17:17:37;2.10;;;0.50;;
74553;SDS011;63114;59.956;30.214;2022-10-18T17:20:03;1.20;;;0.40;;
74553;SDS011;63114;59.956;30.214;2022-10-18T17:22:30;1.25;;;0.40;;
74553;SDS011;63114;59.956;30.214;2022-10-18T17:24:56;2.40;;;0.57;;
74553;SDS011;63114;59.956;30.214;2022-10-18T17:27:22;0.50;;;0.30;;
74553;SDS011;63114;59.956;30.214;2022-10-18T17:29:48;1.23;;;0.22;;
74553;SDS011;63114;59.956;30.214;2022-10-18T17:32:14;0.60;;;0.40;;
74553;SDS011;63114;59.956;30.214;2022-10-18T17:34:40;0.55;;;0.30;;
74553;SDS011;63114;59.956;30.214;2022-10-18T17:37:07;0.75;;;0.25;;
74553;SDS011;63114;59.956;30.214;2022-10-18T17:39:32;0.10;;;0.10;;
74553;SDS011;63114;59.956;30.214;2022-10-18T17:41:58;0.55;;;0.30;;
74553;SDS011;63114;59.956;30.214;2022-10-18T17:44:24;1.30;;;0.70;;
74553;SDS011;63114;59.956;30.214;2022-10-18T17:46:50;0.75;;;0.50;;
74553;SDS011;63114;59.956;30.214;2022-10-18T17:49:16;0.68;;;0.28;;
74553;SDS011;63114;59.956;30.214;2022-10-18T17:51:42;1.20;;;0.22;;
74553;SDS011;63114;59.956;30.214;2022-10-18T17:54:09;1.98;;;0.40;;